TimeEST,TemperatureF,Dew PointF,Humidity,Sea Level PressureIn,VisibilityMPH,Wind Direction,Wind SpeedMPH,Gust SpeedMPH,PrecipitationIn,Events,Conditions,WindDirDegrees,DateUTC
12:03 AM,41.0,35.6,81,29.96,10.0,NNW,18.4,32.2,0.00,,Overcast,330,2012-12-20 05:03:00
12:31 AM,41.0,35.6,81,29.97,10.0,NNW,21.9,-,0.00,Rain,Light Rain,330,2012-12-20 05:31:00
12:40 AM,39.2,35.6,87,29.97,10.0,NW,16.1,28.8,0.00,Rain,Light Rain,320,2012-12-20 05:40:00
12:53 AM,39.9,36.0,86,29.98,10.0,NNW,17.3,27.6,0.00,Rain,Light Rain,330,2012-12-20 05:53:00
1:50 AM,39.2,35.6,87,30.01,10.0,NNW,18.4,28.8,0.00,,Scattered Clouds,330,2012-12-20 06:50:00
1:53 AM,39.9,36.0,86,30.01,10.0,NNW,19.6,26.5,0.00,,Partly Cloudy,340,2012-12-20 06:53:00
2:28 AM,39.2,35.6,87,30.03,10.0,North,17.3,24.2,0.00,Rain,Light Rain,350,2012-12-20 07:28:00
2:53 AM,39.0,36.0,89,30.03,10.0,NNW,11.5,21.9,0.01,Rain,Light Rain,330,2012-12-20 07:53:00
3:37 AM,39.2,35.6,87,30.05,10.0,NNW,15.0,24.2,0.00,,Mostly Cloudy,340,2012-12-20 08:37:00
3:53 AM,39.0,36.0,89,30.05,10.0,North,18.4,25.3,0.00,,Overcast,350,2012-12-20 08:53:00
4:49 AM,39.2,35.6,87,30.06,10.0,NNW,13.8,-,0.00,,Scattered Clouds,340,2012-12-20 09:49:00
4:53 AM,39.0,36.0,89,30.07,10.0,NNW,15.0,-,0.00,,Scattered Clouds,340,2012-12-20 09:53:00
5:12 AM,39.2,35.6,87,30.07,10.0,NNW,12.7,21.9,N/A,,Mostly Cloudy,340,2012-12-20 10:12:00
5:53 AM,39.0,35.1,86,30.08,10.0,North,13.8,-,N/A,,Mostly Cloudy,350,2012-12-20 10:53:00
6:02 AM,39.2,35.6,87,30.08,10.0,North,11.5,-,N/A,,Mostly Cloudy,350,2012-12-20 11:02:00
6:53 AM,39.0,33.1,79,30.10,10.0,North,18.4,23.0,N/A,,Scattered Clouds,10,2012-12-20 11:53:00
7:53 AM,39.9,33.1,77,30.12,10.0,North,12.7,-,N/A,,Partly Cloudy,360,2012-12-20 12:53:00
8:53 AM,41.0,33.1,73,30.15,10.0,North,15.0,-,N/A,,Partly Cloudy,360,2012-12-20 13:53:00
9:53 AM,43.0,35.1,74,30.17,10.0,North,15.0,-,0.00,,Overcast,350,2012-12-20 14:53:00
10:53 AM,43.0,34.0,71,30.16,10.0,North,12.7,-,N/A,,Mostly Cloudy,360,2012-12-20 15:53:00
11:53 AM,44.1,35.1,71,30.14,10.0,North,12.7,-,0.00,,Mostly Cloudy,10,2012-12-20 16:53:00
12:53 PM,44.1,36.0,73,30.14,10.0,NNE,13.8,-,N/A,,Mostly Cloudy,20,2012-12-20 17:53:00
1:10 PM,44.6,33.8,66,30.13,10.0,North,16.1,-,N/A,,Mostly Cloudy,10,2012-12-20 18:10:00
1:53 PM,43.0,33.1,68,30.14,10.0,North,12.7,-,N/A,,Overcast,10,2012-12-20 18:53:00
2:48 PM,42.8,33.8,70,30.13,10.0,NNE,10.4,-,N/A,,Mostly Cloudy,20,2012-12-20 19:48:00
2:53 PM,42.1,35.1,76,30.13,10.0,NNE,13.8,-,N/A,,Mostly Cloudy,20,2012-12-20 19:53:00
3:53 PM,41.0,35.1,79,30.13,10.0,NNE,8.1,-,N/A,,Overcast,30,2012-12-20 20:53:00
4:53 PM,39.9,33.1,77,30.12,10.0,NE,5.8,-,N/A,,Overcast,40,2012-12-20 21:53:00
5:53 PM,39.9,35.1,83,30.14,10.0,NNE,4.6,-,N/A,,Overcast,30,2012-12-20 22:53:00
6:53 PM,41.0,34.0,76,30.12,10.0,ENE,4.6,-,N/A,,Overcast,70,2012-12-20 23:53:00
7:39 PM,39.2,35.6,87,30.13,10.0,Calm,Calm,-,N/A,,Overcast,0,2012-12-21 00:39:00
7:53 PM,39.9,35.1,83,30.13,10.0,NE,3.5,-,N/A,,Overcast,50,2012-12-21 00:53:00
8:20 PM,39.2,35.6,87,30.12,10.0,Calm,Calm,-,N/A,,Overcast,0,2012-12-21 01:20:00
8:53 PM,41.0,35.1,79,30.09,10.0,East,4.6,-,N/A,,Overcast,80,2012-12-21 01:53:00
9:53 PM,42.1,35.1,76,30.07,10.0,ESE,9.2,-,N/A,,Overcast,110,2012-12-21 02:53:00
10:53 PM,43.0,37.0,80,30.07,10.0,SE,11.5,-,N/A,,Overcast,140,2012-12-21 03:53:00
11:53 PM,43.0,37.9,82,30.03,10.0,SE,10.4,-,N/A,,Overcast,140,2012-12-21 04:53:00